sensor_id;sensor_type;location;lat;lon;timestamp;P1;durP1;ratioP1;P2;durP2;ratioP2
80503;SDS011;69825;51.190;6.808;2023-05-16T00:01:22;2.15;;;1.50;;
80503;SDS011;69825;51.190;6.808;2023-05-16T00:03:48;1.70;;;1.40;;
80503;SDS011;69825;51.190;6.808;2023-05-16T00:06:14;2.15;;;1.45;;
80503;SDS011;69825;51.190;6.808;2023-05-16T00:08:39;2.22;;;1.52;;
80503;SDS011;69825;51.190;6.808;2023-05-16T00:11:05;2.63;;;1.35;;
80503;SDS011;69825;51.190;6.808;2023-05-16T00:13:30;2.28;;;1.25;;
80503;SDS011;69825;51.190;6.808;2023-05-16T00:15:55;1.67;;;1.20;;
80503;SDS011;69825;51.190;6.808;2023-05-16T00:18:21;1.67;;;1.40;;
80503;SDS011;69825;51.190;6.808;2023-05-16T00:20:47;2.90;;;1.55;;
80503;SDS011;69825;51.190;6.808;2023-05-16T00:23:13;1.67;;;1.50;;
80503;SDS011;69825;51.190;6.808;2023-05-16T00:25:39;2.35;;;1.65;;
80503;SDS011;69825;51.190;6.808;2023-05-16T00:28:05;2.05;;;1.50;;
80503;SDS011;69825;51.190;6.808;2023-05-16T00:30:32;1.58;;;1.30;;
80503;SDS011;69825;51.190;6.808;2023-05-16T00:32:57;1.58;;;1.40;;
80503;SDS011;69825;51.190;6.808;2023-05-16T00:35:22;1.67;;;1.40;;
80503;SDS011;69825;51.190;6.808;2023-05-16T00:37:49;1.73;;;1.30;;
80503;SDS011;69825;51.190;6.808;2023-05-16T00:40:15;2.03;;;1.42;;
80503;SDS011;69825;51.190;6.808;2023-05-16T00:42:41;1.60;;;1.30;;
80503;SDS011;69825;51.190;6.808;2023-05-16T00:45:07;1.50;;;1.40;;
80503;SDS011;69825;51.190;6.808;2023-05-16T00:47:32;1.27;;;1.17;;
80503;SDS011;69825;51.190;6.808;2023-05-16T00:49:58;2.05;;;1.48;;
80503;SDS011;69825;51.190;6.808;2023-05-16T00:52:23;1.48;;;1.38;;
80503;SDS011;69825;51.190;6.808;2023-05-16T00:54:50;1.17;;;1.10;;
80503;SDS011;69825;51.190;6.808;2023-05-16T00:57:15;1.58;;;1.42;;
80503;SDS011;69825;51.190;6.808;2023-05-16T00:59:41;1.30;;;1.20;;
80503;SDS011;69825;51.190;6.808;2023-05-16T01:02:07;2.10;;;1.33;;
80503;SDS011;69825;51.190;6.808;2023-05-16T01:04:33;1.35;;;1.23;;
80503;SDS011;69825;51.190;6.808;2023-05-16T01:06:59;1.13;;;1.10;;
80503;SDS011;69825;51.190;6.808;2023-05-16T01:09:26;1.58;;;1.40;;
80503;SDS011;69825;51.190;6.808;2023-05-16T01:11:55;3.00;;;1.63;;
80503;SDS011;69825;51.190;6.808;2023-05-16T01:14:41;1.55;;;1.33;;
80503;SDS011;69825;51.190;6.808;2023-05-16T01:17:22;1.55;;;1.30;;
80503;SDS011;69825;51.190;6.808;2023-05-16T01:20:12;1.75;;;1.33;;
80503;SDS011;69825;51.190;6.808;2023-05-16T01:22:58;1.95;;;1.20;;
80503;SDS011;69825;51.190;6.808;2023-05-16T01:25:45;1.83;;;1.50;;
80503;SDS011;69825;51.190;6.808;2023-05-16T01:28:16;1.55;;;1.20;;
80503;SDS011;69825;51.190;6.808;2023-05-16T01:30:43;1.98;;;1.40;;
80503;SDS011;69825;51.190;6.808;2023-05-16T01:33:08;1.52;;;1.40;;
80503;SDS011;69825;51.190;6.808;2023-05-16T01:35:36;2.15;;;1.58;;
80503;SDS011;69825;51.190;6.808;2023-05-16T01:38:25;1.50;;;1.40;;
80503;SDS011;69825;51.190;6.808;2023-05-16T01:43:42;1.70;;;1.20;;
80503;SDS011;69825;51.190;6.808;2023-05-16T01:46:17;1.88;;;1.60;;
80503;SDS011;69825;51.190;6.808;2023-05-16T01:48:57;1.40;;;1.30;;
80503;SDS011;69825;51.190;6.808;2023-05-16T01:51:31;1.20;;;1.10;;
80503;SDS011;69825;51.190;6.808;2023-05-16T01:54:03;1.98;;;1.50;;
80503;SDS011;69825;51.190;6.808;2023-05-16T01:56:30;1.50;;;1.38;;
80503;SDS011;69825;51.190;6.808;2023-05-16T01:58:57;1.50;;;1.40;;
80503;SDS011;69825;51.190;6.808;2023-05-16T02:01:23;1.40;;;1.30;;
80503;SDS011;69825;51.190;6.808;2023-05-16T02:03:48;2.22;;;1.50;;
80503;SDS011;69825;51.190;6.808;2023-05-16T02:06:15;1.95;;;1.50;;
80503;SDS011;69825;51.190;6.808;2023-05-16T02:08:40;1.42;;;1.33;;
80503;SDS011;69825;51.190;6.808;2023-05-16T02:11:05;2.30;;;1.55;;
80503;SDS011;69825;51.190;6.808;2023-05-16T02:13:31;1.40;;;1.30;;
80503;SDS011;69825;51.190;6.808;2023-05-16T02:15:56;2.08;;;1.50;;
80503;SDS011;69825;51.190;6.808;2023-05-16T02:18:21;1.60;;;1.20;;
80503;SDS011;69825;51.190;6.808;2023-05-16T02:20:47;1.58;;;1.33;;
80503;SDS011;69825;51.190;6.808;2023-05-16T02:23:13;1.42;;;1.20;;
80503;SDS011;69825;51.190;6.808;2023-05-16T02:25:39;1.63;;;1.30;;
80503;SDS011;69825;51.190;6.808;2023-05-16T02:28:04;1.40;;;1.30;;
80503;SDS011;69825;51.190;6.808;2023-05-16T02:30:30;1.55;;;1.30;;
80503;SDS011;69825;51.190;6.808;2023-05-16T02:32:56;1.30;;;1.20;;
80503;SDS011;69825;51.190;6.808;2023-05-16T02:35:21;1.73;;;1.35;;
80503;SDS011;69825;51.190;6.808;2023-05-16T02:37:46;1.33;;;1.23;;
80503;SDS011;69825;51.190;6.808;2023-05-16T02:40:12;2.08;;;1.33;;
80503;SDS011;69825;51.190;6.808;2023-05-16T02:42:37;1.48;;;1.38;;
80503;SDS011;69825;51.190;6.808;2023-05-16T02:45:03;1.33;;;1.23;;
80503;SDS011;69825;51.190;6.808;2023-05-16T02:47:29;1.55;;;1.38;;
80503;SDS011;69825;51.190;6.808;2023-05-16T02:49:54;2.45;;;1.73;;
80503;SDS011;69825;51.190;6.808;2023-05-16T02:52:20;1.65;;;1.40;;
80503;SDS011;69825;51.190;6.808;2023-05-16T02:54:45;1.33;;;1.23;;
80503;SDS011;69825;51.190;6.808;2023-05-16T02:57:11;2.08;;;1.42;;
80503;SDS011;69825;51.190;6.808;2023-05-16T02:59:36;1.08;;;1.00;;
80503;SDS011;69825;51.190;6.808;2023-05-16T03:02:02;1.45;;;1.35;;
80503;SDS011;69825;51.190;6.808;2023-05-16T03:04:27;2.70;;;1.70;;
80503;SDS011;69825;51.190;6.808;2023-05-16T03:06:53;1.80;;;1.40;;
80503;SDS011;69825;51.190;6.808;2023-05-16T03:09:18;1.60;;;1.38;;
80503;SDS011;69825;51.190;6.808;2023-05-16T03:11:44;1.40;;;1.30;;
80503;SDS011;69825;51.190;6.808;2023-05-16T03:14:10;1.40;;;1.30;;
80503;SDS011;69825;51.190;6.808;2023-05-16T03:16:36;2.17;;;1.23;;
80503;SDS011;69825;51.190;6.808;2023-05-16T03:19:02;1.40;;;1.17;;
80503;SDS011;69825;51.190;6.808;2023-05-16T03:21:28;1.40;;;1.30;;
80503;SDS011;69825;51.190;6.808;2023-05-16T03:23:53;1.50;;;1.30;;
80503;SDS011;69825;51.190;6.808;2023-05-16T03:26:19;2.05;;;1.30;;
80503;SDS011;69825;51.190;6.808;2023-05-16T03:28:45;1.40;;;1.30;;
80503;SDS011;69825;51.190;6.808;2023-05-16T03:31:10;1.73;;;1.20;;
80503;SDS011;69825;51.190;6.808;2023-05-16T03:33:36;2.20;;;1.45;;
80503;SDS011;69825;51.190;6.808;2023-05-16T03:36:01;1.52;;;1.23;;
80503;SDS011;69825;51.190;6.808;2023-05-16T03:38:27;2.17;;;1.40;;
80503;SDS011;69825;51.190;6.808;2023-05-16T03:40:53;1.33;;;1.23;;
80503;SDS011;69825;51.190;6.808;2023-05-16T03:43:18;1.75;;;1.45;;
80503;SDS011;69825;51.190;6.808;2023-05-16T03:45:43;2.30;;;1.40;;
80503;SDS011;69825;51.190;6.808;2023-05-16T03:48:09;1.30;;;1.20;;
80503;SDS011;69825;51.190;6.808;2023-05-16T03:50:35;1.50;;;1.23;;
80503;SDS011;69825;51.190;6.808;2023-05-16T03:53:01;2.25;;;1.30;;
80503;SDS011;69825;51.190;6.808;2023-05-16T03:55:27;1.60;;;1.23;;
80503;SDS011;69825;51.190;6.808;2023-05-16T03:57:53;2.03;;;1.23;;
80503;SDS011;69825;51.190;6.808;2023-05-16T04:00:18;2.25;;;1.40;;
80503;SDS011;69825;51.190;6.808;2023-05-16T04:02:43;1.55;;;1.42;;
80503;SDS011;69825;51.190;6.808;2023-05-16T04:05:10;1.63;;;1.48;;
80503;SDS011;69825;51.190;6.808;2023-05-16T04:07:38;1.52;;;1.20;;
80503;SDS011;69825;51.190;6.808;2023-05-16T04:10:04;1.88;;;1.23;;
80503;SDS011;69825;51.190;6.808;2023-05-16T04:12:30;2.42;;;1.35;;
80503;SDS011;69825;51.190;6.808;2023-05-16T04:14:56;1.45;;;1.35;;
80503;SDS011;69825;51.190;6.808;2023-05-16T04:17:21;1.58;;;1.30;;
80503;SDS011;69825;51.190;6.808;2023-05-16T04:19:47;1.58;;;1.17;;
80503;SDS011;69825;51.190;6.808;2023-05-16T04:22:12;1.35;;;1.23;;
80503;SDS011;69825;51.190;6.808;2023-05-16T04:24:37;1.45;;;1.35;;
80503;SDS011;69825;51.190;6.808;2023-05-16T04:27:03;2.22;;;1.40;;
80503;SDS011;69825;51.190;6.808;2023-05-16T04:29:32;1.83;;;1.40;;
80503;SDS011;69825;51.190;6.808;2023-05-16T04:31:57;3.33;;;1.42;;
80503;SDS011;69825;51.190;6.808;2023-05-16T04:34:23;1.73;;;1.25;;
80503;SDS011;69825;51.190;6.808;2023-05-16T04:36:51;1.80;;;1.30;;
80503;SDS011;69825;51.190;6.808;2023-05-16T04:39:20;1.52;;;1.23;;
80503;SDS011;69825;51.190;6.808;2023-05-16T04:41:45;1.70;;;1.50;;
80503;SDS011;69825;51.190;6.808;2023-05-16T04:44:11;1.75;;;1.20;;
80503;SDS011;69825;51.190;6.808;2023-05-16T04:46:36;1.50;;;1.40;;
80503;SDS011;69825;51.190;6.808;2023-05-16T04:49:02;2.63;;;1.35;;
80503;SDS011;69825;51.190;6.808;2023-05-16T04:51:27;2.05;;;1.48;;
80503;SDS011;69825;51.190;6.808;2023-05-16T04:53:52;3.05;;;1.50;;
80503;SDS011;69825;51.190;6.808;2023-05-16T04:56:18;2.95;;;1.50;;
80503;SDS011;69825;51.190;6.808;2023-05-16T04:58:44;1.52;;;1.20;;
80503;SDS011;69825;51.190;6.808;2023-05-16T05:01:10;3.03;;;1.40;;
80503;SDS011;69825;51.190;6.808;2023-05-16T05:03:35;3.75;;;1.73;;
80503;SDS011;69825;51.190;6.808;2023-05-16T05:06:01;2.17;;;1.30;;
80503;SDS011;69825;51.190;6.808;2023-05-16T05:08:27;1.92;;;1.30;;
80503;SDS011;69825;51.190;6.808;2023-05-16T05:10:52;1.42;;;1.27;;
80503;SDS011;69825;51.190;6.808;2023-05-16T05:13:19;2.70;;;1.40;;
80503;SDS011;69825;51.190;6.808;2023-05-16T05:15:44;4.00;;;1.60;;
80503;SDS011;69825;51.190;6.808;2023-05-16T05:18:10;3.40;;;1.60;;
80503;SDS011;69825;51.190;6.808;2023-05-16T05:20:35;3.90;;;1.50;;
80503;SDS011;69825;51.190;6.808;2023-05-16T05:23:01;3.80;;;1.83;;
80503;SDS011;69825;51.190;6.808;2023-05-16T05:25:26;3.40;;;1.30;;
80503;SDS011;69825;51.190;6.808;2023-05-16T05:27:51;4.40;;;1.73;;
80503;SDS011;69825;51.190;6.808;2023-05-16T05:30:17;5.47;;;1.70;;
80503;SDS011;69825;51.190;6.808;2023-05-16T05:32:42;2.50;;;1.50;;
80503;SDS011;69825;51.190;6.808;2023-05-16T05:35:07;3.83;;;1.50;;
80503;SDS011;69825;51.190;6.808;2023-05-16T05:37:33;2.80;;;1.60;;
80503;SDS011;69825;51.190;6.808;2023-05-16T05:39:58;3.88;;;1.50;;
80503;SDS011;69825;51.190;6.808;2023-05-16T05:42:24;4.63;;;1.60;;
80503;SDS011;69825;51.190;6.808;2023-05-16T05:44:49;3.70;;;1.60;;
80503;SDS011;69825;51.190;6.808;2023-05-16T05:47:15;5.55;;;1.50;;
80503;SDS011;69825;51.190;6.808;2023-05-16T05:49:40;4.68;;;1.85;;
80503;SDS011;69825;51.190;6.808;2023-05-16T05:52:06;4.55;;;1.70;;
80503;SDS011;69825;51.190;6.808;2023-05-16T05:54:31;5.10;;;1.73;;
80503;SDS011;69825;51.190;6.808;2023-05-16T05:56:57;4.93;;;1.85;;
80503;SDS011;69825;51.190;6.808;2023-05-16T05:59:23;7.15;;;2.08;;
80503;SDS011;69825;51.190;6.808;2023-05-16T06:01:48;5.63;;;1.80;;
80503;SDS011;69825;51.190;6.808;2023-05-16T06:04:16;4.07;;;1.90;;
80503;SDS011;69825;51.190;6.808;2023-05-16T06:06:42;4.07;;;1.60;;
80503;SDS011;69825;51.190;6.808;2023-05-16T06:09:08;3.22;;;1.60;;
80503;SDS011;69825;51.190;6.808;2023-05-16T06:11:33;2.42;;;1.20;;
80503;SDS011;69825;51.190;6.808;2023-05-16T06:13:59;4.93;;;1.83;;
80503;SDS011;69825;51.190;6.808;2023-05-16T06:16:24;3.30;;;1.90;;
80503;SDS011;69825;51.190;6.808;2023-05-16T06:18:50;5.32;;;1.90;;
80503;SDS011;69825;51.190;6.808;2023-05-16T06:21:15;3.38;;;1.63;;
80503;SDS011;69825;51.190;6.808;2023-05-16T06:23:40;3.63;;;1.48;;
80503;SDS011;69825;51.190;6.808;2023-05-16T06:26:06;3.45;;;1.50;;
80503;SDS011;69825;51.190;6.808;2023-05-16T06:28:31;4.38;;;1.52;;
80503;SDS011;69825;51.190;6.808;2023-05-16T06:30:56;3.22;;;1.55;;
80503;SDS011;69825;51.190;6.808;2023-05-16T06:33:22;5.00;;;1.85;;
80503;SDS011;69825;51.190;6.808;2023-05-16T06:35:47;3.38;;;1.45;;
80503;SDS011;69825;51.190;6.808;2023-05-16T06:38:13;3.55;;;1.55;;
80503;SDS011;69825;51.190;6.808;2023-05-16T06:40:39;3.45;;;1.60;;
80503;SDS011;69825;51.190;6.808;2023-05-16T06:43:04;5.90;;;1.77;;
80503;SDS011;69825;51.190;6.808;2023-05-16T06:45:29;4.15;;;1.70;;
80503;SDS011;69825;51.190;6.808;2023-05-16T06:47:55;3.45;;;1.80;;
80503;SDS011;69825;51.190;6.808;2023-05-16T06:50:20;4.82;;;1.65;;
80503;SDS011;69825;51.190;6.808;2023-05-16T06:52:46;3.13;;;1.60;;
80503;SDS011;69825;51.190;6.808;2023-05-16T06:55:12;5.70;;;2.13;;
80503;SDS011;69825;51.190;6.808;2023-05-16T06:57:37;3.78;;;1.50;;
80503;SDS011;69825;51.190;6.808;2023-05-16T07:00:02;3.42;;;1.60;;
80503;SDS011;69825;51.190;6.808;2023-05-16T07:02:28;3.33;;;1.80;;
80503;SDS011;69825;51.190;6.808;2023-05-16T07:04:54;3.38;;;1.65;;
80503;SDS011;69825;51.190;6.808;2023-05-16T07:07:19;3.00;;;1.52;;
80503;SDS011;69825;51.190;6.808;2023-05-16T07:09:44;2.92;;;1.48;;
80503;SDS011;69825;51.190;6.808;2023-05-16T07:12:10;2.70;;;1.35;;
80503;SDS011;69825;51.190;6.808;2023-05-16T07:14:35;3.50;;;1.60;;
80503;SDS011;69825;51.190;6.808;2023-05-16T07:17:00;2.67;;;1.48;;
80503;SDS011;69825;51.190;6.808;2023-05-16T07:19:26;5.25;;;1.80;;
80503;SDS011;69825;51.190;6.808;2023-05-16T07:21:51;3.15;;;1.63;;
80503;SDS011;69825;51.190;6.808;2023-05-16T07:24:17;4.03;;;1.80;;
80503;SDS011;69825;51.190;6.808;2023-05-16T07:26:43;5.07;;;1.60;;
80503;SDS011;69825;51.190;6.808;2023-05-16T07:29:08;3.38;;;1.52;;
80503;SDS011;69825;51.190;6.808;2023-05-16T07:31:33;3.53;;;1.58;;
80503;SDS011;69825;51.190;6.808;2023-05-16T07:33:59;4.65;;;1.77;;
80503;SDS011;69825;51.190;6.808;2023-05-16T07:36:24;2.78;;;1.67;;
80503;SDS011;69825;51.190;6.808;2023-05-16T07:38:50;3.50;;;1.42;;
80503;SDS011;69825;51.190;6.808;2023-05-16T07:41:15;2.70;;;1.40;;
80503;SDS011;69825;51.190;6.808;2023-05-16T07:43:41;2.92;;;1.50;;
80503;SDS011;69825;51.190;6.808;2023-05-16T07:46:06;3.75;;;1.52;;
80503;SDS011;69825;51.190;6.808;2023-05-16T07:48:31;3.60;;;1.50;;
80503;SDS011;69825;51.190;6.808;2023-05-16T07:50:57;2.65;;;1.40;;
80503;SDS011;69825;51.190;6.808;2023-05-16T07:53:22;2.33;;;1.30;;
80503;SDS011;69825;51.190;6.808;2023-05-16T07:55:48;2.95;;;1.75;;
80503;SDS011;69825;51.190;6.808;2023-05-16T07:58:13;1.92;;;1.30;;
80503;SDS011;69825;51.190;6.808;2023-05-16T08:00:39;3.33;;;1.50;;
80503;SDS011;69825;51.190;6.808;2023-05-16T08:03:04;2.10;;;1.40;;
80503;SDS011;69825;51.190;6.808;2023-05-16T08:05:30;2.40;;;1.30;;
80503;SDS011;69825;51.190;6.808;2023-05-16T08:07:56;2.80;;;1.40;;
80503;SDS011;69825;51.190;6.808;2023-05-16T08:10:21;3.70;;;1.67;;
80503;SDS011;69825;51.190;6.808;2023-05-16T08:12:47;1.98;;;1.50;;
80503;SDS011;69825;51.190;6.808;2023-05-16T08:15:13;3.78;;;1.50;;
80503;SDS011;69825;51.190;6.808;2023-05-16T08:17:38;2.22;;;1.50;;
80503;SDS011;69825;51.190;6.808;2023-05-16T08:20:04;2.65;;;1.35;;
80503;SDS011;69825;51.190;6.808;2023-05-16T08:22:30;3.55;;;1.50;;
80503;SDS011;69825;51.190;6.808;2023-05-16T08:24:56;1.80;;;1.40;;
80503;SDS011;69825;51.190;6.808;2023-05-16T08:27:22;2.55;;;1.38;;
80503;SDS011;69825;51.190;6.808;2023-05-16T08:29:48;3.58;;;1.60;;
80503;SDS011;69825;51.190;6.808;2023-05-16T08:32:13;3.35;;;1.40;;
80503;SDS011;69825;51.190;6.808;2023-05-16T08:34:39;2.65;;;1.40;;
80503;SDS011;69825;51.190;6.808;2023-05-16T08:37:05;1.85;;;1.42;;
80503;SDS011;69825;51.190;6.808;2023-05-16T08:39:30;4.25;;;1.67;;
80503;SDS011;69825;51.190;6.808;2023-05-16T08:41:56;2.92;;;1.48;;
80503;SDS011;69825;51.190;6.808;2023-05-16T08:44:22;2.25;;;1.25;;
80503;SDS011;69825;51.190;6.808;2023-05-16T08:46:49;1.95;;;1.20;;
80503;SDS011;69825;51.190;6.808;2023-05-16T08:49:16;2.00;;;1.40;;
80503;SDS011;69825;51.190;6.808;2023-05-16T08:51:42;3.17;;;1.50;;
80503;SDS011;69825;51.190;6.808;2023-05-16T08:54:10;3.90;;;1.52;;
80503;SDS011;69825;51.190;6.808;2023-05-16T08:56:37;2.97;;;1.50;;
80503;SDS011;69825;51.190;6.808;2023-05-16T08:59:02;3.55;;;1.40;;
80503;SDS011;69825;51.190;6.808;2023-05-16T09:01:29;2.80;;;1.40;;
80503;SDS011;69825;51.190;6.808;2023-05-16T09:03:56;5.05;;;1.65;;
80503;SDS011;69825;51.190;6.808;2023-05-16T09:06:22;2.83;;;1.40;;
80503;SDS011;69825;51.190;6.808;2023-05-16T09:08:47;2.35;;;1.33;;
80503;SDS011;69825;51.190;6.808;2023-05-16T09:11:13;3.13;;;1.52;;
80503;SDS011;69825;51.190;6.808;2023-05-16T09:13:38;2.92;;;1.40;;
80503;SDS011;69825;51.190;6.808;2023-05-16T09:16:07;2.58;;;1.30;;
80503;SDS011;69825;51.190;6.808;2023-05-16T09:18:34;2.05;;;1.40;;
80503;SDS011;69825;51.190;6.808;2023-05-16T09:21:01;2.17;;;1.30;;
80503;SDS011;69825;51.190;6.808;2023-05-16T09:23:27;2.28;;;1.42;;
80503;SDS011;69825;51.190;6.808;2023-05-16T09:25:53;2.33;;;1.40;;
80503;SDS011;69825;51.190;6.808;2023-05-16T09:28:18;2.15;;;1.33;;
80503;SDS011;69825;51.190;6.808;2023-05-16T09:30:45;2.67;;;1.30;;
80503;SDS011;69825;51.190;6.808;2023-05-16T09:33:10;2.40;;;1.40;;
80503;SDS011;69825;51.190;6.808;2023-05-16T09:35:36;2.63;;;1.40;;
80503;SDS011;69825;51.190;6.808;2023-05-16T09:38:01;2.88;;;1.50;;
80503;SDS011;69825;51.190;6.808;2023-05-16T09:40:27;2.92;;;1.50;;
80503;SDS011;69825;51.190;6.808;2023-05-16T09:45:29;1.95;;;1.50;;
80503;SDS011;69825;51.190;6.808;2023-05-16T09:47:57;2.80;;;1.35;;
80503;SDS011;69825;51.190;6.808;2023-05-16T09:50:26;1.73;;;1.10;;
80503;SDS011;69825;51.190;6.808;2023-05-16T09:52:51;2.75;;;1.20;;
80503;SDS011;69825;51.190;6.808;2023-05-16T09:55:16;2.95;;;1.27;;
80503;SDS011;69825;51.190;6.808;2023-05-16T09:57:42;1.90;;;1.20;;
80503;SDS011;69825;51.190;6.808;2023-05-16T10:00:10;2.10;;;1.15;;
80503;SDS011;69825;51.190;6.808;2023-05-16T10:02:37;1.80;;;1.17;;
80503;SDS011;69825;51.190;6.808;2023-05-16T10:05:05;1.35;;;1.20;;
80503;SDS011;69825;51.190;6.808;2023-05-16T10:07:31;2.40;;;1.20;;
80503;SDS011;69825;51.190;6.808;2023-05-16T10:10:06;1.88;;;1.20;;
80503;SDS011;69825;51.190;6.808;2023-05-16T10:12:33;1.67;;;1.05;;
80503;SDS011;69825;51.190;6.808;2023-05-16T10:15:01;1.98;;;1.10;;
80503;SDS011;69825;51.190;6.808;2023-05-16T10:17:27;1.88;;;1.00;;
80503;SDS011;69825;51.190;6.808;2023-05-16T10:19:56;2.95;;;1.30;;
80503;SDS011;69825;51.190;6.808;2023-05-16T10:22:22;2.25;;;1.30;;
80503;SDS011;69825;51.190;6.808;2023-05-16T10:27:28;1.92;;;1.30;;
80503;SDS011;69825;51.190;6.808;2023-05-16T10:29:55;1.83;;;1.20;;
80503;SDS011;69825;51.190;6.808;2023-05-16T10:32:22;2.03;;;1.42;;
80503;SDS011;69825;51.190;6.808;2023-05-16T10:34:49;1.75;;;1.25;;
80503;SDS011;69825;51.190;6.808;2023-05-16T10:37:14;1.98;;;1.30;;
80503;SDS011;69825;51.190;6.808;2023-05-16T10:39:40;1.42;;;1.10;;
80503;SDS011;69825;51.190;6.808;2023-05-16T10:42:06;1.48;;;1.00;;
80503;SDS011;69825;51.190;6.808;2023-05-16T10:44:32;1.67;;;1.20;;
80503;SDS011;69825;51.190;6.808;2023-05-16T10:46:58;2.33;;;1.00;;
80503;SDS011;69825;51.190;6.808;2023-05-16T10:49:25;1.48;;;1.25;;
80503;SDS011;69825;51.190;6.808;2023-05-16T10:52:01;1.15;;;1.00;;
80503;SDS011;69825;51.190;6.808;2023-05-16T10:54:49;1.30;;;1.00;;
80503;SDS011;69825;51.190;6.808;2023-05-16T10:57:22;2.28;;;1.15;;
80503;SDS011;69825;51.190;6.808;2023-05-16T10:59:48;2.55;;;1.17;;
80503;SDS011;69825;51.190;6.808;2023-05-16T11:02:20;1.70;;;1.10;;
80503;SDS011;69825;51.190;6.808;2023-05-16T11:04:51;2.05;;;1.00;;
80503;SDS011;69825;51.190;6.808;2023-05-16T11:07:17;1.88;;;1.25;;
80503;SDS011;69825;51.190;6.808;2023-05-16T11:09:44;2.33;;;1.30;;
80503;SDS011;69825;51.190;6.808;2023-05-16T11:12:10;1.27;;;1.00;;
80503;SDS011;69825;51.190;6.808;2023-05-16T11:14:39;1.85;;;1.30;;
80503;SDS011;69825;51.190;6.808;2023-05-16T11:17:15;1.52;;;1.00;;
80503;SDS011;69825;51.190;6.808;2023-05-16T11:19:49;1.00;;;0.90;;
80503;SDS011;69825;51.190;6.808;2023-05-16T11:24:51;1.77;;;1.10;;
80503;SDS011;69825;51.190;6.808;2023-05-16T11:27:20;1.13;;;1.02;;
80503;SDS011;69825;51.190;6.808;2023-05-16T11:29:54;2.22;;;1.17;;
80503;SDS011;69825;51.190;6.808;2023-05-16T11:32:24;1.50;;;0.98;;
80503;SDS011;69825;51.190;6.808;2023-05-16T11:34:50;1.75;;;1.10;;
80503;SDS011;69825;51.190;6.808;2023-05-16T11:37:16;1.42;;;1.00;;
80503;SDS011;69825;51.190;6.808;2023-05-16T11:39:43;1.13;;;0.80;;
80503;SDS011;69825;51.190;6.808;2023-05-16T11:42:09;1.10;;;1.00;;
80503;SDS011;69825;51.190;6.808;2023-05-16T11:44:34;1.65;;;0.98;;
80503;SDS011;69825;51.190;6.808;2023-05-16T11:47:00;1.15;;;0.88;;
80503;SDS011;69825;51.190;6.808;2023-05-16T11:49:26;1.30;;;0.82;;
80503;SDS011;69825;51.190;6.808;2023-05-16T11:51:52;1.00;;;0.90;;
80503;SDS011;69825;51.190;6.808;2023-05-16T11:54:18;1.33;;;1.10;;
80503;SDS011;69825;51.190;6.808;2023-05-16T11:56:44;1.50;;;1.00;;
80503;SDS011;69825;51.190;6.808;2023-05-16T11:59:10;1.63;;;1.00;;
80503;SDS011;69825;51.190;6.808;2023-05-16T12:01:36;0.95;;;0.90;;
80503;SDS011;69825;51.190;6.808;2023-05-16T12:04:12;1.55;;;1.02;;
80503;SDS011;69825;51.190;6.808;2023-05-16T12:06:38;2.13;;;0.98;;
80503;SDS011;69825;51.190;6.808;2023-05-16T12:09:04;2.33;;;1.10;;
80503;SDS011;69825;51.190;6.808;2023-05-16T12:11:41;1.30;;;0.90;;
80503;SDS011;69825;51.190;6.808;2023-05-16T12:14:08;3.03;;;1.10;;
80503;SDS011;69825;51.190;6.808;2023-05-16T12:16:36;2.35;;;1.00;;
80503;SDS011;69825;51.190;6.808;2023-05-16T12:19:05;1.55;;;0.98;;
80503;SDS011;69825;51.190;6.808;2023-05-16T12:21:32;2.38;;;1.17;;
80503;SDS011;69825;51.190;6.808;2023-05-16T12:23:57;1.65;;;1.00;;
80503;SDS011;69825;51.190;6.808;2023-05-16T12:26:27;2.80;;;1.05;;
80503;SDS011;69825;51.190;6.808;2023-05-16T12:29:01;1.35;;;0.82;;
80503;SDS011;69825;51.190;6.808;2023-05-16T12:31:29;1.40;;;0.70;;
80503;SDS011;69825;51.190;6.808;2023-05-16T12:33:56;1.85;;;0.93;;
80503;SDS011;69825;51.190;6.808;2023-05-16T12:36:22;1.65;;;0.90;;
80503;SDS011;69825;51.190;6.808;2023-05-16T12:38:48;1.77;;;1.00;;
80503;SDS011;69825;51.190;6.808;2023-05-16T12:41:17;3.40;;;1.00;;
80503;SDS011;69825;51.190;6.808;2023-05-16T12:43:44;1.20;;;0.90;;
80503;SDS011;69825;51.190;6.808;2023-05-16T12:46:09;1.25;;;0.90;;
80503;SDS011;69825;51.190;6.808;2023-05-16T12:48:36;1.75;;;0.93;;
80503;SDS011;69825;51.190;6.808;2023-05-16T12:51:10;2.83;;;0.90;;
80503;SDS011;69825;51.190;6.808;2023-05-16T12:53:40;4.15;;;1.00;;
80503;SDS011;69825;51.190;6.808;2023-05-16T12:56:10;1.20;;;0.85;;
80503;SDS011;69825;51.190;6.808;2023-05-16T12:58:36;2.15;;;0.73;;
80503;SDS011;69825;51.190;6.808;2023-05-16T13:01:02;1.10;;;0.88;;
80503;SDS011;69825;51.190;6.808;2023-05-16T13:03:28;1.80;;;0.80;;
80503;SDS011;69825;51.190;6.808;2023-05-16T13:05:54;1.90;;;0.80;;
80503;SDS011;69825;51.190;6.808;2023-05-16T13:08:19;1.27;;;0.70;;
80503;SDS011;69825;51.190;6.808;2023-05-16T13:10:45;0.88;;;0.77;;
80503;SDS011;69825;51.190;6.808;2023-05-16T13:13:10;0.95;;;0.70;;
80503;SDS011;69825;51.190;6.808;2023-05-16T13:15:36;1.98;;;0.80;;
80503;SDS011;69825;51.190;6.808;2023-05-16T13:18:02;1.08;;;0.80;;
80503;SDS011;69825;51.190;6.808;2023-05-16T13:20:27;1.50;;;0.80;;
80503;SDS011;69825;51.190;6.808;2023-05-16T13:22:53;1.02;;;0.80;;
80503;SDS011;69825;51.190;6.808;2023-05-16T13:25:19;1.73;;;0.90;;
80503;SDS011;69825;51.190;6.808;2023-05-16T13:27:45;1.02;;;0.73;;
80503;SDS011;69825;51.190;6.808;2023-05-16T13:30:10;1.85;;;0.60;;
80503;SDS011;69825;51.190;6.808;2023-05-16T13:32:36;1.15;;;0.75;;
80503;SDS011;69825;51.190;6.808;2023-05-16T13:35:02;2.40;;;0.95;;
80503;SDS011;69825;51.190;6.808;2023-05-16T13:37:28;1.65;;;0.70;;
80503;SDS011;69825;51.190;6.808;2023-05-16T13:39:53;1.98;;;0.75;;
80503;SDS011;69825;51.190;6.808;2023-05-16T13:42:19;3.53;;;0.80;;
80503;SDS011;69825;51.190;6.808;2023-05-16T13:44:45;1.52;;;0.77;;
80503;SDS011;69825;51.190;6.808;2023-05-16T13:47:10;2.15;;;0.80;;
80503;SDS011;69825;51.190;6.808;2023-05-16T13:49:35;1.15;;;0.75;;
80503;SDS011;69825;51.190;6.808;2023-05-16T13:52:01;0.95;;;0.70;;
80503;SDS011;69825;51.190;6.808;2023-05-16T13:54:27;1.17;;;0.70;;
80503;SDS011;69825;51.190;6.808;2023-05-16T13:56:52;3.85;;;0.90;;
80503;SDS011;69825;51.190;6.808;2023-05-16T13:59:18;2.15;;;1.25;;
80503;SDS011;69825;51.190;6.808;2023-05-16T14:01:43;1.15;;;0.70;;
80503;SDS011;69825;51.190;6.808;2023-05-16T14:04:08;1.48;;;0.95;;
80503;SDS011;69825;51.190;6.808;2023-05-16T14:06:34;1.15;;;0.63;;
80503;SDS011;69825;51.190;6.808;2023-05-16T14:08:59;1.45;;;0.88;;
80503;SDS011;69825;51.190;6.808;2023-05-16T14:11:25;2.65;;;0.88;;
80503;SDS011;69825;51.190;6.808;2023-05-16T14:13:51;1.20;;;0.80;;
80503;SDS011;69825;51.190;6.808;2023-05-16T14:16:19;1.52;;;0.88;;
80503;SDS011;69825;51.190;6.808;2023-05-16T14:18:45;1.70;;;0.90;;
80503;SDS011;69825;51.190;6.808;2023-05-16T14:21:10;1.52;;;0.88;;
80503;SDS011;69825;51.190;6.808;2023-05-16T14:23:36;3.00;;;0.90;;
80503;SDS011;69825;51.190;6.808;2023-05-16T14:26:02;1.38;;;0.80;;
80503;SDS011;69825;51.190;6.808;2023-05-16T14:28:28;2.28;;;1.00;;
80503;SDS011;69825;51.190;6.808;2023-05-16T14:30:54;2.45;;;0.80;;
80503;SDS011;69825;51.190;6.808;2023-05-16T14:33:20;1.50;;;0.73;;
80503;SDS011;69825;51.190;6.808;2023-05-16T14:35:45;2.78;;;0.95;;
80503;SDS011;69825;51.190;6.808;2023-05-16T14:38:13;3.50;;;0.80;;
80503;SDS011;69825;51.190;6.808;2023-05-16T14:40:38;2.20;;;0.95;;
80503;SDS011;69825;51.190;6.808;2023-05-16T14:43:04;0.95;;;0.70;;
80503;SDS011;69825;51.190;6.808;2023-05-16T14:45:29;1.50;;;0.80;;
80503;SDS011;69825;51.190;6.808;2023-05-16T14:47:55;2.95;;;0.90;;
80503;SDS011;69825;51.190;6.808;2023-05-16T14:50:20;1.42;;;0.70;;
80503;SDS011;69825;51.190;6.808;2023-05-16T14:52:45;2.35;;;0.98;;
80503;SDS011;69825;51.190;6.808;2023-05-16T14:55:11;1.77;;;0.90;;